createdAt,value
2023-05-09T00:00:56.528Z,100.00
2023-05-09T00:03:24.558Z,100.00
2023-05-09T00:05:52.479Z,100.00
2023-05-09T00:08:20.179Z,100.00
2023-05-09T00:10:49.232Z,100.00
2023-05-09T00:13:17.690Z,100.00
2023-05-09T00:15:46.638Z,100.00
2023-05-09T00:18:15.184Z,100.00
2023-05-09T00:20:44.362Z,100.00
2023-05-09T00:23:12.075Z,100.00
2023-05-09T00:25:39.815Z,100.00
2023-05-09T00:28:08.997Z,100.00
2023-05-09T00:30:36.628Z,100.00
2023-05-09T00:33:04.387Z,100.00
2023-05-09T00:35:32.471Z,100.00
2023-05-09T00:38:00.240Z,100.00
2023-05-09T00:40:28.356Z,100.00
2023-05-09T00:42:58.305Z,100.00
2023-05-09T00:45:27.580Z,100.00
2023-05-09T00:47:55.317Z,100.00
2023-05-09T00:50:23.080Z,100.00
2023-05-09T00:52:51.492Z,100.00
2023-05-09T00:55:19.629Z,100.00
2023-05-09T00:57:47.699Z,100.00
2023-05-09T01:00:16.717Z,100.00
2023-05-09T01:02:47.702Z,100.00
2023-05-09T01:05:16.124Z,100.00
2023-05-09T01:07:47.483Z,100.00
2023-05-09T01:10:24.167Z,100.00
2023-05-09T01:12:56.279Z,100.00
2023-05-09T01:15:29.063Z,100.00
2023-05-09T01:18:01.108Z,100.00
2023-05-09T01:20:33.691Z,100.00
2023-05-09T01:23:17.090Z,100.00
2023-05-09T01:25:56.251Z,100.00
2023-05-09T01:28:54.697Z,100.00
2023-05-09T01:31:24.650Z,100.00
2023-05-09T01:33:56.042Z,100.00
2023-05-09T01:36:24.588Z,100.00
2023-05-09T01:38:53.154Z,100.00
2023-05-09T01:41:23.843Z,100.00
2023-05-09T01:43:51.986Z,100.00
2023-05-09T01:46:20.600Z,100.00
2023-05-09T01:48:51.150Z,100.00
2023-05-09T01:51:20.227Z,100.00
2023-05-09T01:53:49.577Z,100.00
2023-05-09T01:56:17.812Z,100.00
2023-05-09T01:58:48.208Z,100.00
2023-05-09T02:01:16.278Z,100.00
2023-05-09T02:03:44.643Z,100.00
2023-05-09T02:06:15.137Z,100.00
2023-05-09T02:08:43.680Z,100.00
2023-05-09T02:11:11.365Z,100.00
2023-05-09T02:13:39.319Z,100.00
2023-05-09T02:16:07.950Z,100.00
2023-05-09T02:18:35.752Z,100.00
2023-05-09T02:21:04.045Z,100.00
2023-05-09T02:23:33.173Z,100.00
2023-05-09T02:26:00.968Z,100.00
2023-05-09T02:28:29.190Z,100.00
2023-05-09T02:30:58.673Z,100.00
2023-05-09T02:33:26.647Z,100.00
2023-05-09T02:35:54.897Z,100.00
2023-05-09T02:38:22.574Z,100.00
2023-05-09T02:40:52.555Z,100.00
2023-05-09T02:43:20.431Z,100.00
2023-05-09T02:45:48.147Z,100.00
2023-05-09T02:48:15.897Z,100.00
2023-05-09T02:50:44.355Z,100.00
2023-05-09T02:53:12.121Z,100.00
2023-05-09T02:55:39.846Z,100.00
2023-05-09T02:58:14.125Z,100.00
2023-05-09T03:00:43.257Z,100.00
2023-05-09T03:03:11.400Z,100.00
2023-05-09T03:05:39.269Z,100.00
2023-05-09T03:08:07.062Z,100.00
2023-05-09T03:10:35.298Z,100.00
2023-05-09T03:13:03.008Z,100.00
2023-05-09T03:15:32.116Z,100.00
2023-05-09T03:17:59.797Z,100.00
2023-05-09T03:20:27.729Z,100.00
2023-05-09T03:22:55.466Z,100.00
2023-05-09T03:25:23.353Z,100.00
2023-05-09T03:27:51.055Z,100.00
2023-05-09T03:30:19.129Z,100.00
2023-05-09T03:32:48.235Z,100.00
2023-05-09T03:35:16.287Z,100.00
2023-05-09T03:37:44.180Z,100.00
2023-05-09T03:40:12.675Z,100.00
2023-05-09T03:42:40.328Z,100.00
2023-05-09T03:45:09.154Z,100.00
2023-05-09T03:47:36.885Z,100.00
2023-05-09T03:50:07.095Z,100.00
2023-05-09T03:52:34.786Z,100.00
2023-05-09T03:55:02.724Z,100.00
2023-05-09T03:57:30.403Z,100.00
2023-05-09T03:59:58.138Z,100.00
2023-05-09T04:02:26.068Z,100.00
2023-05-09T04:04:53.897Z,100.00
2023-05-09T04:07:23.105Z,100.00
2023-05-09T04:09:50.772Z,100.00
2023-05-09T04:12:18.803Z,100.00
2023-05-09T04:14:48.904Z,100.00
2023-05-09T04:17:16.834Z,100.00
2023-05-09T04:19:44.557Z,100.00
2023-05-09T04:22:12.637Z,100.00
2023-05-09T04:24:42.126Z,100.00
2023-05-09T04:27:09.789Z,100.00
2023-05-09T04:29:38.371Z,100.00
2023-05-09T04:32:06.509Z,100.00
2023-05-09T04:34:34.307Z,100.00
2023-05-09T04:37:01.995Z,100.00
2023-05-09T04:39:30.429Z,100.00
2023-05-09T04:41:59.468Z,100.00
2023-05-09T04:44:27.569Z,100.00
2023-05-09T04:46:55.972Z,100.00
2023-05-09T04:49:23.626Z,100.00
2023-05-09T04:51:52.278Z,100.00
2023-05-09T04:54:19.926Z,100.00
2023-05-09T04:56:50.052Z,100.00
2023-05-09T04:59:19.739Z,100.00
2023-05-09T05:01:47.539Z,100.00
2023-05-09T05:04:15.328Z,100.00
2023-05-09T05:06:42.989Z,100.00
2023-05-09T05:09:11.120Z,100.00
2023-05-09T05:11:38.972Z,100.00
2023-05-09T05:14:07.979Z,100.00
2023-05-09T05:16:37.121Z,100.00
2023-05-09T05:19:05.167Z,100.00
2023-05-09T05:21:32.810Z,100.00
2023-05-09T05:24:00.493Z,100.00
2023-05-09T05:26:29.015Z,100.00
2023-05-09T05:28:57.199Z,100.00
2023-05-09T05:31:24.866Z,100.00
2023-05-09T05:33:53.933Z,100.00
2023-05-09T05:36:21.790Z,100.00
2023-05-09T05:38:49.440Z,100.00
2023-05-09T05:41:17.093Z,100.00
2023-05-09T05:43:44.802Z,100.00
2023-05-09T05:46:12.528Z,100.00
2023-05-09T05:48:40.239Z,100.00
2023-05-09T05:51:09.333Z,100.00
2023-05-09T05:53:37.263Z,100.00
2023-05-09T05:56:05.351Z,100.00
2023-05-09T05:58:32.989Z,100.00
2023-05-09T06:01:00.879Z,100.00
2023-05-09T06:03:28.638Z,100.00
2023-05-09T06:05:56.904Z,100.00
2023-05-09T06:08:26.043Z,100.00
2023-05-09T06:10:53.780Z,100.00
2023-05-09T06:13:21.508Z,100.00
2023-05-09T06:15:49.275Z,100.00
2023-05-09T06:18:16.931Z,100.00
2023-05-09T06:20:44.586Z,100.00
2023-05-09T06:23:12.284Z,100.00
2023-05-09T06:25:41.401Z,100.00
2023-05-09T06:28:09.101Z,100.00
2023-05-09T06:30:36.817Z,100.00
2023-05-09T06:33:04.526Z,100.00
2023-05-09T06:35:32.300Z,100.00
2023-05-09T06:37:59.994Z,100.00
2023-05-09T06:40:27.843Z,100.00
2023-05-09T06:42:57.126Z,100.00
2023-05-09T06:45:24.847Z,100.00
2023-05-09T06:47:52.571Z,100.00
2023-05-09T06:50:20.382Z,100.00
2023-05-09T06:52:48.357Z,100.00
2023-05-09T06:55:16.359Z,100.00
2023-05-09T06:57:44.252Z,100.00
2023-05-09T07:00:14.946Z,100.00
2023-05-09T07:02:43.223Z,99.63
2023-05-09T07:05:11.738Z,97.90
2023-05-09T07:07:39.413Z,98.20
2023-05-09T07:10:11.900Z,96.84
2023-05-09T07:12:40.333Z,96.94
2023-05-09T07:15:09.572Z,96.32
2023-05-09T07:17:38.690Z,95.45
2023-05-09T07:20:07.884Z,95.00
2023-05-09T07:22:37.374Z,96.31
2023-05-09T07:25:07.799Z,94.96
2023-05-09T07:27:35.518Z,91.88
2023-05-09T07:30:03.369Z,90.39
2023-05-09T07:32:31.133Z,88.20
2023-05-09T07:35:00.264Z,86.61
2023-05-09T07:37:27.947Z,82.02
2023-05-09T07:39:55.835Z,78.06
2023-05-09T07:42:23.561Z,77.32
2023-05-09T07:44:51.246Z,77.65
2023-05-09T07:47:18.950Z,80.18
2023-05-09T07:49:47.999Z,80.58
2023-05-09T07:52:17.942Z,82.10
2023-05-09T07:54:45.870Z,81.69
2023-05-09T07:57:13.640Z,82.28
2023-05-09T07:59:42.394Z,82.91
2023-05-09T08:02:10.228Z,82.50
2023-05-09T08:04:41.184Z,81.14
2023-05-09T08:07:09.670Z,79.26
2023-05-09T08:09:38.740Z,78.65
2023-05-09T08:12:07.029Z,76.67
2023-05-09T08:14:34.750Z,74.90
2023-05-09T08:17:02.443Z,74.64
2023-05-09T08:19:30.217Z,75.02
2023-05-09T08:21:57.908Z,74.96
2023-05-09T08:24:25.625Z,75.27
2023-05-09T08:26:54.820Z,78.86
2023-05-09T08:29:22.514Z,79.20
2023-05-09T08:31:51.230Z,81.88
2023-05-09T08:34:19.027Z,81.52
2023-05-09T08:36:47.008Z,78.73
2023-05-09T08:39:15.060Z,77.70
2023-05-09T08:41:43.408Z,79.95
2023-05-09T08:44:12.637Z,77.55
2023-05-09T08:46:44.209Z,75.80
2023-05-09T08:49:12.183Z,73.30
2023-05-09T08:51:40.238Z,68.14
2023-05-09T08:54:08.376Z,64.77
2023-05-09T08:56:36.432Z,64.27
2023-05-09T08:59:05.725Z,66.78
2023-05-09T09:01:36.442Z,66.49
2023-05-09T09:04:07.166Z,67.15
2023-05-09T09:06:35.529Z,66.07
2023-05-09T09:09:06.041Z,64.11
2023-05-09T09:11:34.763Z,61.18
2023-05-09T09:14:03.384Z,60.82
2023-05-09T09:16:31.879Z,63.45
2023-05-09T09:19:01.490Z,63.16
2023-05-09T09:21:29.214Z,61.44
2023-05-09T09:23:57.088Z,63.76
2023-05-09T09:26:25.014Z,62.89
2023-05-09T09:28:54.324Z,61.77
2023-05-09T09:31:23.414Z,64.71
2023-05-09T09:33:52.184Z,65.79
2023-05-09T09:36:29.178Z,64.11
2023-05-09T09:39:01.448Z,62.74
2023-05-09T09:41:33.726Z,62.09
2023-05-09T09:44:07.763Z,58.22
2023-05-09T09:46:53.684Z,59.08
2023-05-09T09:49:22.179Z,62.18
2023-05-09T09:51:56.061Z,63.81
2023-05-09T09:54:24.114Z,63.19
2023-05-09T09:56:54.293Z,59.14
2023-05-09T09:59:23.546Z,55.44
2023-05-09T10:01:56.204Z,57.61
2023-05-09T10:04:24.342Z,59.31
2023-05-09T10:06:58.145Z,61.77
2023-05-09T10:09:27.281Z,59.89
2023-05-09T10:11:56.717Z,60.20
2023-05-09T10:14:25.761Z,59.34
2023-05-09T10:16:56.664Z,56.45
2023-05-09T10:19:26.464Z,56.35
2023-05-09T10:21:57.241Z,56.30
2023-05-09T10:24:29.967Z,56.76
2023-05-09T10:27:01.667Z,55.73
2023-05-09T10:29:31.929Z,56.99
2023-05-09T10:32:02.626Z,54.96
2023-05-09T10:34:33.003Z,55.68
2023-05-09T10:37:02.646Z,54.25
2023-05-09T10:39:30.605Z,55.23
2023-05-09T10:41:59.811Z,55.47
2023-05-09T10:44:27.732Z,53.07
2023-05-09T10:46:55.702Z,55.84
2023-05-09T10:49:23.752Z,55.32
2023-05-09T10:51:52.238Z,54.07
2023-05-09T10:54:33.408Z,52.97
2023-05-09T10:57:01.168Z,54.14
2023-05-09T10:59:37.339Z,56.31
2023-05-09T11:02:05.902Z,57.39
2023-05-09T11:04:33.863Z,58.21
2023-05-09T11:07:01.913Z,60.15
2023-05-09T11:09:33.837Z,59.04
2023-05-09T11:12:12.844Z,58.19
2023-05-09T11:14:45.491Z,59.13
2023-05-09T11:17:14.467Z,58.78
2023-05-09T11:20:00.714Z,56.60
2023-05-09T11:22:30.642Z,58.17
2023-05-09T11:25:05.599Z,60.00
2023-05-09T11:27:39.900Z,58.02
2023-05-09T11:30:09.245Z,58.35
2023-05-09T11:32:43.227Z,57.93
2023-05-09T11:35:14.937Z,58.92
2023-05-09T11:37:47.987Z,59.07
2023-05-09T11:40:18.548Z,59.97
2023-05-09T11:42:47.423Z,58.58
2023-05-09T11:45:16.081Z,58.02
2023-05-09T11:47:44.237Z,54.42
2023-05-09T11:50:13.637Z,52.95
2023-05-09T11:52:41.888Z,51.69
2023-05-09T11:55:12.723Z,52.70
2023-05-09T11:57:44.284Z,51.63
2023-05-09T12:00:12.968Z,49.65
2023-05-09T12:02:40.687Z,48.19
2023-05-09T12:05:10.148Z,48.50
2023-05-09T12:07:39.550Z,48.81
2023-05-09T12:10:08.714Z,49.40
2023-05-09T12:12:36.698Z,51.13
2023-05-09T12:15:09.008Z,53.85
2023-05-09T12:17:36.956Z,53.53
2023-05-09T12:20:05.985Z,54.68
2023-05-09T12:22:34.094Z,54.64
2023-05-09T12:25:03.927Z,51.86
2023-05-09T12:27:33.062Z,51.09
2023-05-09T12:30:01.477Z,49.61
2023-05-09T12:32:32.940Z,48.55
2023-05-09T12:35:01.462Z,48.36
2023-05-09T12:37:32.532Z,48.50
2023-05-09T12:40:06.331Z,48.13
2023-05-09T12:42:34.396Z,48.74
2023-05-09T12:45:03.144Z,47.49
2023-05-09T12:47:32.995Z,47.16
2023-05-09T12:50:01.569Z,46.76
2023-05-09T12:52:35.354Z,46.34
2023-05-09T12:55:06.888Z,46.42
2023-05-09T12:57:34.618Z,45.19
2023-05-09T13:00:04.170Z,45.22
2023-05-09T13:02:37.071Z,47.64
2023-05-09T13:05:10.790Z,50.99
2023-05-09T13:07:42.133Z,57.06
2023-05-09T13:10:13.701Z,57.30
2023-05-09T13:12:44.627Z,56.92
2023-05-09T13:15:12.947Z,57.63
2023-05-09T13:17:42.245Z,59.05
2023-05-09T13:20:10.613Z,59.23
2023-05-09T13:22:38.631Z,57.45
2023-05-09T13:25:07.151Z,58.62
2023-05-09T13:27:35.774Z,58.44
2023-05-09T13:30:03.719Z,59.42
2023-05-09T13:32:31.636Z,59.31
2023-05-09T13:35:00.946Z,59.49
2023-05-09T13:37:28.680Z,59.66
2023-05-09T13:39:56.490Z,60.65
2023-05-09T13:42:24.108Z,60.64
2023-05-09T13:44:51.770Z,62.15
2023-05-09T13:47:19.437Z,64.48
2023-05-09T13:49:47.069Z,65.73
2023-05-09T13:52:16.897Z,67.45
2023-05-09T13:54:44.626Z,68.67
2023-05-09T13:57:12.701Z,68.51
2023-05-09T13:59:42.122Z,68.40
2023-05-09T14:02:10.893Z,66.09
2023-05-09T14:04:38.688Z,66.77
2023-05-09T14:07:06.710Z,66.32
2023-05-09T14:09:39.967Z,71.85
2023-05-09T14:12:08.156Z,72.51
2023-05-09T14:14:36.004Z,71.81
2023-05-09T14:17:04.450Z,69.62
2023-05-09T14:19:32.119Z,71.04
2023-05-09T14:21:59.773Z,69.22
2023-05-09T14:24:30.813Z,69.99
2023-05-09T14:26:59.901Z,72.07
2023-05-09T14:29:27.725Z,74.24
2023-05-09T14:31:55.756Z,75.56
2023-05-09T14:34:23.457Z,79.00
2023-05-09T14:36:51.284Z,79.11
2023-05-09T14:39:20.463Z,76.59
2023-05-09T14:41:50.023Z,77.14
2023-05-09T14:44:19.059Z,77.92
2023-05-09T14:46:46.788Z,80.27
2023-05-09T14:49:14.538Z,85.70
2023-05-09T14:51:42.263Z,88.34
2023-05-09T14:54:09.923Z,92.48
2023-05-09T14:56:37.938Z,92.51
2023-05-09T14:59:05.647Z,90.54
2023-05-09T15:01:34.760Z,97.84
2023-05-09T15:04:02.551Z,100.00
2023-05-09T15:06:30.466Z,100.00
2023-05-09T15:08:58.166Z,100.00
2023-05-09T15:11:28.645Z,100.00
2023-05-09T15:13:58.497Z,100.00
2023-05-09T15:16:26.561Z,100.00
2023-05-09T15:18:56.449Z,100.00
2023-05-09T15:21:24.147Z,100.00
2023-05-09T15:23:51.780Z,100.00
2023-05-09T15:26:19.556Z,100.00
2023-05-09T15:28:47.280Z,100.00
2023-05-09T15:31:15.341Z,100.00
2023-05-09T15:33:43.205Z,100.00
2023-05-09T15:36:12.660Z,100.00
2023-05-09T15:38:40.328Z,100.00
2023-05-09T15:41:08.981Z,100.00
2023-05-09T15:43:36.702Z,100.00
2023-05-09T15:46:04.362Z,100.00
2023-05-09T15:48:32.123Z,100.00
2023-05-09T15:50:59.768Z,100.00
2023-05-09T15:53:28.834Z,100.00
2023-05-09T15:55:56.852Z,100.00
2023-05-09T15:58:24.555Z,100.00
2023-05-09T16:00:52.401Z,100.00
2023-05-09T16:03:20.239Z,100.00
2023-05-09T16:05:48.276Z,100.00
2023-05-09T16:08:16.020Z,100.00
2023-05-09T16:10:48.785Z,100.00
2023-05-09T16:13:17.752Z,100.00
2023-05-09T16:15:47.824Z,100.00
2023-05-09T16:18:15.604Z,100.00
2023-05-09T16:20:44.034Z,100.00
2023-05-09T16:23:11.880Z,100.00
2023-05-09T16:25:39.736Z,100.00
2023-05-09T16:28:08.882Z,100.00
2023-05-09T16:30:36.575Z,100.00
2023-05-09T16:33:04.270Z,100.00
2023-05-09T16:35:32.028Z,100.00
2023-05-09T16:37:59.772Z,100.00
2023-05-09T16:40:27.543Z,100.00
2023-05-09T16:42:55.213Z,100.00
2023-05-09T16:45:24.295Z,100.00
2023-05-09T16:47:53.256Z,100.00
2023-05-09T16:50:21.135Z,100.00
2023-05-09T16:52:49.083Z,100.00
2023-05-09T16:55:17.046Z,100.00
2023-05-09T16:57:44.787Z,100.00
2023-05-09T17:00:13.551Z,100.00
2023-05-09T17:02:42.730Z,100.00
2023-05-09T17:05:10.869Z,99.90
2023-05-09T17:07:38.756Z,98.69
2023-05-09T17:10:07.307Z,99.43
2023-05-09T17:12:35.190Z,100.00
2023-05-09T17:15:02.908Z,100.00
2023-05-09T17:17:30.809Z,100.00
2023-05-09T17:20:01.015Z,100.00
2023-05-09T17:22:28.898Z,100.00
2023-05-09T17:24:56.622Z,100.00
2023-05-09T17:27:24.345Z,100.00
2023-05-09T17:29:52.057Z,100.00
2023-05-09T17:32:19.753Z,100.00
2023-05-09T17:34:47.452Z,100.00
2023-05-09T17:37:17.217Z,100.00
2023-05-09T17:39:45.014Z,100.00
2023-05-09T17:42:12.912Z,100.00
2023-05-09T17:44:43.031Z,100.00
2023-05-09T17:47:12.560Z,100.00
2023-05-09T17:49:40.587Z,100.00
2023-05-09T17:52:08.250Z,100.00
2023-05-09T17:54:37.611Z,100.00
2023-05-09T17:57:05.305Z,100.00
2023-05-09T17:59:33.140Z,100.00
2023-05-09T18:02:00.891Z,100.00
2023-05-09T18:04:30.697Z,100.00
2023-05-09T18:06:58.382Z,100.00
2023-05-09T18:09:26.454Z,100.00
2023-05-09T18:11:55.477Z,100.00
2023-05-09T18:14:23.201Z,100.00
2023-05-09T18:16:50.928Z,100.00
2023-05-09T18:19:18.691Z,100.00
2023-05-09T18:21:46.437Z,100.00
2023-05-09T18:24:16.314Z,100.00
2023-05-09T18:26:44.711Z,100.00
2023-05-09T18:29:13.804Z,100.00
2023-05-09T18:31:41.770Z,100.00
2023-05-09T18:34:09.922Z,100.00
2023-05-09T18:36:37.674Z,100.00
2023-05-09T18:39:05.514Z,100.00
2023-05-09T18:41:34.198Z,100.00
2023-05-09T18:44:01.976Z,100.00
2023-05-09T18:46:33.585Z,100.00
2023-05-09T18:49:03.006Z,100.00
2023-05-09T18:51:31.175Z,100.00
2023-05-09T18:53:58.851Z,100.00
2023-05-09T18:56:26.511Z,100.00
2023-05-09T18:58:54.206Z,100.00
2023-05-09T19:01:24.285Z,100.00
2023-05-09T19:03:55.156Z,100.00
2023-05-09T19:06:24.059Z,100.00
2023-05-09T19:08:52.103Z,100.00
2023-05-09T19:11:19.771Z,100.00
2023-05-09T19:13:49.375Z,100.00
2023-05-09T19:16:19.546Z,100.00
2023-05-09T19:18:47.293Z,100.00
2023-05-09T19:21:18.661Z,100.00
2023-05-09T19:23:47.725Z,100.00
2023-05-09T19:26:15.998Z,100.00
2023-05-09T19:28:43.815Z,100.00
2023-05-09T19:31:11.619Z,100.00
2023-05-09T19:33:39.596Z,100.00
2023-05-09T19:36:07.881Z,100.00
2023-05-09T19:38:37.052Z,100.00
2023-05-09T19:41:04.837Z,100.00
2023-05-09T19:43:32.576Z,100.00
2023-05-09T19:46:00.866Z,100.00
2023-05-09T19:48:28.658Z,100.00
2023-05-09T19:50:57.826Z,100.00
2023-05-09T19:53:25.830Z,100.00
2023-05-09T19:55:54.857Z,100.00
2023-05-09T19:58:22.562Z,100.00
2023-05-09T20:00:50.238Z,100.00
2023-05-09T20:03:18.153Z,100.00
2023-05-09T20:05:45.958Z,100.00
2023-05-09T20:08:16.063Z,100.00
2023-05-09T20:10:43.739Z,100.00
2023-05-09T20:13:13.954Z,100.00
2023-05-09T20:15:41.662Z,100.00
2023-05-09T20:18:09.323Z,100.00
2023-05-09T20:20:37.263Z,100.00
2023-05-09T20:23:04.994Z,100.00
2023-05-09T20:25:33.088Z,100.00
2023-05-09T20:28:00.753Z,100.00
2023-05-09T20:30:29.802Z,100.00
2023-05-09T20:32:58.591Z,100.00
2023-05-09T20:35:26.407Z,100.00
2023-05-09T20:37:54.061Z,100.00
2023-05-09T20:40:21.851Z,100.00
2023-05-09T20:42:49.514Z,100.00
2023-05-09T20:45:17.732Z,100.00
2023-05-09T20:47:46.874Z,100.00
2023-05-09T20:50:14.799Z,100.00
2023-05-09T20:52:42.688Z,100.00
2023-05-09T20:55:10.804Z,100.00
2023-05-09T20:57:38.458Z,100.00
2023-05-09T21:00:07.553Z,100.00
2023-05-09T21:02:35.388Z,100.00
2023-05-09T21:05:04.801Z,100.00
2023-05-09T21:07:32.488Z,100.00
2023-05-09T21:10:00.212Z,100.00
2023-05-09T21:12:27.911Z,100.00
2023-05-09T21:14:56.337Z,100.00
2023-05-09T21:17:24.087Z,100.00
2023-05-09T21:19:52.252Z,100.00
2023-05-09T21:22:21.287Z,100.00
2023-05-09T21:24:49.117Z,100.00
2023-05-09T21:27:16.794Z,100.00
2023-05-09T21:29:44.441Z,100.00
2023-05-09T21:32:12.108Z,100.00
2023-05-09T21:34:39.746Z,100.00
2023-05-09T21:37:07.426Z,100.00
2023-05-09T21:39:36.424Z,100.00
2023-05-09T21:42:04.203Z,100.00
2023-05-09T21:44:31.914Z,100.00
2023-05-09T21:46:59.887Z,100.00
2023-05-09T21:49:28.355Z,100.00
2023-05-09T21:51:56.127Z,100.00
2023-05-09T21:54:23.851Z,100.00
2023-05-09T21:56:52.875Z,100.00
2023-05-09T21:59:22.238Z,100.00
2023-05-09T22:01:50.120Z,100.00
2023-05-09T22:04:17.776Z,100.00
2023-05-09T22:06:45.480Z,100.00
2023-05-09T22:09:13.135Z,100.00
2023-05-09T22:11:40.847Z,100.00
2023-05-09T22:14:10.321Z,100.00
2023-05-09T22:16:38.394Z,100.00
2023-05-09T22:19:06.128Z,100.00
2023-05-09T22:21:33.775Z,100.00
2023-05-09T22:24:01.477Z,100.00
2023-05-09T22:26:29.156Z,100.00
2023-05-09T22:28:56.811Z,100.00
2023-05-09T22:31:25.895Z,100.00
2023-05-09T22:33:53.584Z,100.00
2023-05-09T22:36:21.749Z,100.00
2023-05-09T22:38:49.403Z,100.00
2023-05-09T22:41:17.228Z,100.00
2023-05-09T22:43:44.992Z,100.00
2023-05-09T22:46:12.793Z,100.00
2023-05-09T22:48:41.917Z,100.00
2023-05-09T22:51:09.947Z,100.00
2023-05-09T22:53:37.961Z,100.00
2023-05-09T22:56:07.528Z,100.00
2023-05-09T22:58:35.271Z,100.00
2023-05-09T23:01:03.101Z,100.00
2023-05-09T23:03:30.890Z,100.00
2023-05-09T23:05:59.947Z,100.00
2023-05-09T23:08:27.636Z,100.00
2023-05-09T23:10:55.324Z,100.00
2023-05-09T23:13:23.551Z,100.00
2023-05-09T23:15:51.969Z,100.00
2023-05-09T23:18:21.006Z,100.00
2023-05-09T23:20:48.708Z,100.00
2023-05-09T23:23:17.780Z,100.00
2023-05-09T23:25:45.558Z,100.00
2023-05-09T23:28:13.584Z,100.00
2023-05-09T23:30:41.315Z,100.00
2023-05-09T23:33:08.983Z,100.00
2023-05-09T23:35:36.623Z,100.00
2023-05-09T23:38:04.675Z,100.00
2023-05-09T23:40:33.731Z,100.00
2023-05-09T23:43:01.389Z,100.00
2023-05-09T23:45:29.436Z,100.00
2023-05-09T23:47:58.143Z,100.00
2023-05-09T23:50:25.849Z,100.00
2023-05-09T23:52:53.557Z,100.00
2023-05-09T23:55:21.359Z,100.00
2023-05-09T23:57:50.411Z,100.00
